sensor_id;sensor_type;location;lat;lon;timestamp;P1;durP1;ratioP1;P2;durP2;ratioP2
51907;SDS011;39320;53.214;6.556;2022-12-29T00:02:25;1.15;;;1.15;;
51907;SDS011;39320;53.214;6.556;2022-12-29T00:04:51;1.50;;;1.40;;
51907;SDS011;39320;53.214;6.556;2022-12-29T00:07:17;1.45;;;1.35;;
51907;SDS011;39320;53.214;6.556;2022-12-29T00:09:43;1.20;;;1.20;;
51907;SDS011;39320;53.214;6.556;2022-12-29T00:12:09;1.40;;;1.30;;
51907;SDS011;39320;53.214;6.556;2022-12-29T00:14:34;1.55;;;1.45;;
51907;SDS011;39320;53.214;6.556;2022-12-29T00:17:18;1.10;;;1.10;;
51907;SDS011;39320;53.214;6.556;2022-12-29T00:19:44;1.30;;;1.30;;
51907;SDS011;39320;53.214;6.556;2022-12-29T00:22:28;1.85;;;1.30;;
51907;SDS011;39320;53.214;6.556;2022-12-29T00:25:13;1.08;;;1.08;;
51907;SDS011;39320;53.214;6.556;2022-12-29T00:27:57;1.15;;;1.13;;
51907;SDS011;39320;53.214;6.556;2022-12-29T00:30:42;1.25;;;1.23;;
51907;SDS011;39320;53.214;6.556;2022-12-29T00:33:28;1.10;;;1.10;;
51907;SDS011;39320;53.214;6.556;2022-12-29T00:36:18;1.25;;;1.15;;
51907;SDS011;39320;53.214;6.556;2022-12-29T00:38:53;1.23;;;1.23;;
51907;SDS011;39320;53.214;6.556;2022-12-29T00:41:41;1.38;;;1.27;;
51907;SDS011;39320;53.214;6.556;2022-12-29T00:44:25;1.48;;;1.38;;
51907;SDS011;39320;53.214;6.556;2022-12-29T00:46:51;1.25;;;1.25;;
51907;SDS011;39320;53.214;6.556;2022-12-29T00:49:16;1.27;;;1.27;;
51907;SDS011;39320;53.214;6.556;2022-12-29T00:54:25;1.20;;;1.10;;
51907;SDS011;39320;53.214;6.556;2022-12-29T00:56:51;1.33;;;1.23;;
51907;SDS011;39320;53.214;6.556;2022-12-29T00:59:17;1.63;;;1.52;;
51907;SDS011;39320;53.214;6.556;2022-12-29T01:01:44;1.30;;;1.30;;
51907;SDS011;39320;53.214;6.556;2022-12-29T01:04:10;1.50;;;1.40;;
51907;SDS011;39320;53.214;6.556;2022-12-29T01:06:39;1.02;;;1.02;;
51907;SDS011;39320;53.214;6.556;2022-12-29T01:09:05;1.27;;;1.27;;
51907;SDS011;39320;53.214;6.556;2022-12-29T01:11:51;1.27;;;1.02;;
51907;SDS011;39320;53.214;6.556;2022-12-29T01:14:17;0.90;;;0.90;;
51907;SDS011;39320;53.214;6.556;2022-12-29T01:16:44;1.13;;;1.02;;
51907;SDS011;39320;53.214;6.556;2022-12-29T01:19:10;1.38;;;1.30;;
51907;SDS011;39320;53.214;6.556;2022-12-29T01:21:36;1.20;;;1.20;;
51907;SDS011;39320;53.214;6.556;2022-12-29T01:24:02;1.30;;;1.20;;
51907;SDS011;39320;53.214;6.556;2022-12-29T01:26:28;1.00;;;1.00;;
51907;SDS011;39320;53.214;6.556;2022-12-29T01:28:53;1.35;;;1.25;;
51907;SDS011;39320;53.214;6.556;2022-12-29T01:31:19;1.30;;;1.30;;
51907;SDS011;39320;53.214;6.556;2022-12-29T01:33:46;1.20;;;1.20;;
51907;SDS011;39320;53.214;6.556;2022-12-29T01:36:12;1.45;;;1.30;;
51907;SDS011;39320;53.214;6.556;2022-12-29T01:38:39;1.27;;;1.27;;
51907;SDS011;39320;53.214;6.556;2022-12-29T01:41:06;1.10;;;1.10;;
51907;SDS011;39320;53.214;6.556;2022-12-29T01:48:49;1.30;;;1.30;;
51907;SDS011;39320;53.214;6.556;2022-12-29T01:51:18;1.38;;;1.20;;
51907;SDS011;39320;53.214;6.556;2022-12-29T01:53:47;1.42;;;1.33;;
51907;SDS011;39320;53.214;6.556;2022-12-29T01:56:13;1.30;;;1.30;;
51907;SDS011;39320;53.214;6.556;2022-12-29T01:58:41;1.30;;;1.30;;
51907;SDS011;39320;53.214;6.556;2022-12-29T02:01:12;1.40;;;1.30;;
51907;SDS011;39320;53.214;6.556;2022-12-29T02:03:40;1.40;;;1.40;;
51907;SDS011;39320;53.214;6.556;2022-12-29T02:08:49;1.20;;;1.10;;
51907;SDS011;39320;53.214;6.556;2022-12-29T02:11:17;1.42;;;1.33;;
51907;SDS011;39320;53.214;6.556;2022-12-29T02:13:44;1.75;;;1.42;;
51907;SDS011;39320;53.214;6.556;2022-12-29T02:19:15;1.20;;;1.20;;
51907;SDS011;39320;53.214;6.556;2022-12-29T02:22:00;1.20;;;1.10;;
51907;SDS011;39320;53.214;6.556;2022-12-29T02:41:32;1.08;;;1.08;;
51907;SDS011;39320;53.214;6.556;2022-12-29T02:52:17;1.10;;;1.00;;
51907;SDS011;39320;53.214;6.556;2022-12-29T02:54:48;0.95;;;0.90;;
51907;SDS011;39320;53.214;6.556;2022-12-29T02:59:47;0.90;;;0.90;;
51907;SDS011;39320;53.214;6.556;2022-12-29T03:02:25;2.05;;;0.90;;
51907;SDS011;39320;53.214;6.556;2022-12-29T03:05:06;1.10;;;1.00;;
51907;SDS011;39320;53.214;6.556;2022-12-29T03:07:40;1.02;;;1.02;;
51907;SDS011;39320;53.214;6.556;2022-12-29T03:15:57;0.70;;;0.70;;
51907;SDS011;39320;53.214;6.556;2022-12-29T03:24:28;0.90;;;0.90;;
51907;SDS011;39320;53.214;6.556;2022-12-29T03:27:01;0.90;;;0.90;;
51907;SDS011;39320;53.214;6.556;2022-12-29T03:29:31;0.77;;;0.77;;
51907;SDS011;39320;53.214;6.556;2022-12-29T03:32:01;0.60;;;0.60;;
51907;SDS011;39320;53.214;6.556;2022-12-29T03:34:29;0.88;;;0.88;;
51907;SDS011;39320;53.214;6.556;2022-12-29T03:36:58;0.88;;;0.88;;
51907;SDS011;39320;53.214;6.556;2022-12-29T03:39:27;1.10;;;1.00;;
51907;SDS011;39320;53.214;6.556;2022-12-29T03:42:01;1.05;;;0.80;;
51907;SDS011;39320;53.214;6.556;2022-12-29T03:44:41;0.70;;;0.70;;
51907;SDS011;39320;53.214;6.556;2022-12-29T03:47:10;0.70;;;0.70;;
51907;SDS011;39320;53.214;6.556;2022-12-29T03:49:37;0.68;;;0.68;;
51907;SDS011;39320;53.214;6.556;2022-12-29T03:52:03;0.82;;;0.70;;
51907;SDS011;39320;53.214;6.556;2022-12-29T03:54:29;0.73;;;0.73;;
51907;SDS011;39320;53.214;6.556;2022-12-29T03:56:55;1.08;;;0.63;;
51907;SDS011;39320;53.214;6.556;2022-12-29T03:59:21;0.70;;;0.70;;
51907;SDS011;39320;53.214;6.556;2022-12-29T04:01:47;0.95;;;0.88;;
51907;SDS011;39320;53.214;6.556;2022-12-29T04:04:13;0.60;;;0.60;;
51907;SDS011;39320;53.214;6.556;2022-12-29T04:06:39;0.55;;;0.55;;
51907;SDS011;39320;53.214;6.556;2022-12-29T04:09:05;0.82;;;0.68;;
51907;SDS011;39320;53.214;6.556;2022-12-29T04:11:31;1.58;;;0.88;;
51907;SDS011;39320;53.214;6.556;2022-12-29T04:13:57;0.95;;;0.90;;
51907;SDS011;39320;53.214;6.556;2022-12-29T04:16:22;0.70;;;0.70;;
51907;SDS011;39320;53.214;6.556;2022-12-29T04:18:48;0.70;;;0.70;;
51907;SDS011;39320;53.214;6.556;2022-12-29T04:21:14;0.63;;;0.63;;
51907;SDS011;39320;53.214;6.556;2022-12-29T04:23:40;0.65;;;0.65;;
51907;SDS011;39320;53.214;6.556;2022-12-29T04:26:06;0.60;;;0.57;;
51907;SDS011;39320;53.214;6.556;2022-12-29T04:28:34;0.70;;;0.70;;
51907;SDS011;39320;53.214;6.556;2022-12-29T04:31:00;0.60;;;0.60;;
51907;SDS011;39320;53.214;6.556;2022-12-29T04:33:26;0.80;;;0.80;;
51907;SDS011;39320;53.214;6.556;2022-12-29T04:35:52;0.60;;;0.60;;
51907;SDS011;39320;53.214;6.556;2022-12-29T04:38:19;1.13;;;0.65;;
51907;SDS011;39320;53.214;6.556;2022-12-29T04:40:46;1.45;;;0.80;;
51907;SDS011;39320;53.214;6.556;2022-12-29T04:43:12;0.73;;;0.57;;
51907;SDS011;39320;53.214;6.556;2022-12-29T04:45:39;1.10;;;0.80;;
51907;SDS011;39320;53.214;6.556;2022-12-29T04:48:09;0.90;;;0.85;;
51907;SDS011;39320;53.214;6.556;2022-12-29T04:50:34;1.08;;;0.77;;
51907;SDS011;39320;53.214;6.556;2022-12-29T04:53:00;1.00;;;0.77;;
51907;SDS011;39320;53.214;6.556;2022-12-29T04:55:26;0.70;;;0.70;;
51907;SDS011;39320;53.214;6.556;2022-12-29T04:57:51;0.60;;;0.60;;
51907;SDS011;39320;53.214;6.556;2022-12-29T05:00:17;0.88;;;0.60;;
51907;SDS011;39320;53.214;6.556;2022-12-29T05:02:43;0.90;;;0.80;;
51907;SDS011;39320;53.214;6.556;2022-12-29T05:05:09;0.82;;;0.70;;
51907;SDS011;39320;53.214;6.556;2022-12-29T05:07:35;0.95;;;0.70;;
51907;SDS011;39320;53.214;6.556;2022-12-29T05:10:01;0.80;;;0.75;;
51907;SDS011;39320;53.214;6.556;2022-12-29T05:12:31;2.83;;;1.23;;
51907;SDS011;39320;53.214;6.556;2022-12-29T05:14:57;0.95;;;0.90;;
51907;SDS011;39320;53.214;6.556;2022-12-29T05:17:24;2.35;;;1.30;;
51907;SDS011;39320;53.214;6.556;2022-12-29T05:19:50;1.00;;;0.90;;
51907;SDS011;39320;53.214;6.556;2022-12-29T05:22:15;1.70;;;1.10;;
51907;SDS011;39320;53.214;6.556;2022-12-29T05:24:41;1.85;;;0.90;;
51907;SDS011;39320;53.214;6.556;2022-12-29T05:27:07;1.38;;;0.90;;
51907;SDS011;39320;53.214;6.556;2022-12-29T05:29:32;1.92;;;1.00;;
51907;SDS011;39320;53.214;6.556;2022-12-29T05:31:58;1.92;;;0.88;;
51907;SDS011;39320;53.214;6.556;2022-12-29T05:34:24;1.00;;;0.80;;
51907;SDS011;39320;53.214;6.556;2022-12-29T05:36:50;1.20;;;1.00;;
51907;SDS011;39320;53.214;6.556;2022-12-29T05:39:16;2.25;;;1.27;;
51907;SDS011;39320;53.214;6.556;2022-12-29T05:41:42;2.00;;;0.93;;
51907;SDS011;39320;53.214;6.556;2022-12-29T05:44:07;1.33;;;0.98;;
51907;SDS011;39320;53.214;6.556;2022-12-29T05:46:35;1.75;;;1.02;;
51907;SDS011;39320;53.214;6.556;2022-12-29T05:49:01;1.88;;;0.90;;
51907;SDS011;39320;53.214;6.556;2022-12-29T05:51:27;1.38;;;1.20;;
51907;SDS011;39320;53.214;6.556;2022-12-29T05:53:52;1.95;;;1.05;;
51907;SDS011;39320;53.214;6.556;2022-12-29T05:56:18;1.00;;;1.00;;
51907;SDS011;39320;53.214;6.556;2022-12-29T05:58:44;1.00;;;0.90;;
51907;SDS011;39320;53.214;6.556;2022-12-29T06:01:09;1.10;;;1.08;;
51907;SDS011;39320;53.214;6.556;2022-12-29T06:03:35;2.55;;;1.10;;
51907;SDS011;39320;53.214;6.556;2022-12-29T06:06:01;2.28;;;1.10;;
51907;SDS011;39320;53.214;6.556;2022-12-29T06:08:26;1.25;;;1.00;;
51907;SDS011;39320;53.214;6.556;2022-12-29T06:10:52;1.73;;;1.30;;
51907;SDS011;39320;53.214;6.556;2022-12-29T06:13:18;1.75;;;1.00;;
51907;SDS011;39320;53.214;6.556;2022-12-29T06:15:44;1.58;;;1.20;;
51907;SDS011;39320;53.214;6.556;2022-12-29T06:18:09;1.20;;;0.98;;
51907;SDS011;39320;53.214;6.556;2022-12-29T06:20:35;1.48;;;1.00;;
51907;SDS011;39320;53.214;6.556;2022-12-29T06:23:01;1.00;;;1.00;;
51907;SDS011;39320;53.214;6.556;2022-12-29T06:25:27;1.50;;;0.93;;
51907;SDS011;39320;53.214;6.556;2022-12-29T06:27:55;1.60;;;1.17;;
51907;SDS011;39320;53.214;6.556;2022-12-29T06:30:21;1.88;;;1.27;;
51907;SDS011;39320;53.214;6.556;2022-12-29T06:32:47;2.03;;;1.35;;
51907;SDS011;39320;53.214;6.556;2022-12-29T06:35:13;2.70;;;1.30;;
51907;SDS011;39320;53.214;6.556;2022-12-29T06:37:39;2.05;;;1.23;;
51907;SDS011;39320;53.214;6.556;2022-12-29T06:40:05;1.90;;;0.90;;
51907;SDS011;39320;53.214;6.556;2022-12-29T06:42:31;1.42;;;1.00;;
51907;SDS011;39320;53.214;6.556;2022-12-29T06:44:56;2.35;;;1.27;;
51907;SDS011;39320;53.214;6.556;2022-12-29T06:47:24;2.95;;;1.35;;
51907;SDS011;39320;53.214;6.556;2022-12-29T06:49:50;1.60;;;1.10;;
51907;SDS011;39320;53.214;6.556;2022-12-29T06:52:15;1.35;;;1.17;;
51907;SDS011;39320;53.214;6.556;2022-12-29T06:54:41;2.20;;;1.35;;
51907;SDS011;39320;53.214;6.556;2022-12-29T06:57:07;2.17;;;1.30;;
51907;SDS011;39320;53.214;6.556;2022-12-29T06:59:33;1.95;;;1.20;;
51907;SDS011;39320;53.214;6.556;2022-12-29T07:01:58;2.50;;;1.30;;
51907;SDS011;39320;53.214;6.556;2022-12-29T07:04:27;1.50;;;1.10;;
51907;SDS011;39320;53.214;6.556;2022-12-29T07:06:53;1.35;;;1.02;;
51907;SDS011;39320;53.214;6.556;2022-12-29T07:09:18;2.38;;;1.13;;
51907;SDS011;39320;53.214;6.556;2022-12-29T07:11:44;2.17;;;1.38;;
51907;SDS011;39320;53.214;6.556;2022-12-29T07:14:11;1.48;;;1.17;;
51907;SDS011;39320;53.214;6.556;2022-12-29T07:16:37;1.95;;;1.33;;
51907;SDS011;39320;53.214;6.556;2022-12-29T07:19:03;1.83;;;1.30;;
51907;SDS011;39320;53.214;6.556;2022-12-29T07:21:29;1.27;;;1.15;;
51907;SDS011;39320;53.214;6.556;2022-12-29T07:23:55;2.35;;;1.30;;
51907;SDS011;39320;53.214;6.556;2022-12-29T07:26:21;1.17;;;1.08;;
51907;SDS011;39320;53.214;6.556;2022-12-29T07:28:47;1.10;;;0.98;;
51907;SDS011;39320;53.214;6.556;2022-12-29T07:31:16;1.30;;;1.20;;
51907;SDS011;39320;53.214;6.556;2022-12-29T07:33:44;1.73;;;1.10;;
51907;SDS011;39320;53.214;6.556;2022-12-29T07:36:11;1.92;;;1.33;;
51907;SDS011;39320;53.214;6.556;2022-12-29T07:38:38;2.65;;;1.52;;
51907;SDS011;39320;53.214;6.556;2022-12-29T07:41:04;1.38;;;1.23;;
51907;SDS011;39320;53.214;6.556;2022-12-29T07:43:30;1.85;;;1.42;;
51907;SDS011;39320;53.214;6.556;2022-12-29T07:45:55;1.70;;;1.23;;
51907;SDS011;39320;53.214;6.556;2022-12-29T07:48:21;1.40;;;1.00;;
51907;SDS011;39320;53.214;6.556;2022-12-29T07:50:47;1.17;;;1.10;;
51907;SDS011;39320;53.214;6.556;2022-12-29T07:53:13;2.92;;;1.13;;
51907;SDS011;39320;53.214;6.556;2022-12-29T07:55:39;3.00;;;1.55;;
51907;SDS011;39320;53.214;6.556;2022-12-29T07:58:05;1.80;;;1.45;;
51907;SDS011;39320;53.214;6.556;2022-12-29T08:00:31;1.48;;;1.00;;
51907;SDS011;39320;53.214;6.556;2022-12-29T08:02:57;2.10;;;1.10;;
51907;SDS011;39320;53.214;6.556;2022-12-29T08:05:23;2.03;;;1.40;;
51907;SDS011;39320;53.214;6.556;2022-12-29T08:07:49;1.83;;;1.45;;
51907;SDS011;39320;53.214;6.556;2022-12-29T08:10:14;1.73;;;1.20;;
51907;SDS011;39320;53.214;6.556;2022-12-29T08:12:41;1.42;;;1.15;;
51907;SDS011;39320;53.214;6.556;2022-12-29T08:15:07;2.42;;;1.55;;
51907;SDS011;39320;53.214;6.556;2022-12-29T08:17:34;1.40;;;1.30;;
51907;SDS011;39320;53.214;6.556;2022-12-29T08:20:00;2.05;;;1.40;;
51907;SDS011;39320;53.214;6.556;2022-12-29T08:22:26;2.35;;;1.20;;
51907;SDS011;39320;53.214;6.556;2022-12-29T08:24:51;2.25;;;1.30;;
51907;SDS011;39320;53.214;6.556;2022-12-29T08:27:18;2.50;;;1.50;;
51907;SDS011;39320;53.214;6.556;2022-12-29T08:29:44;2.63;;;1.38;;
51907;SDS011;39320;53.214;6.556;2022-12-29T08:32:10;1.77;;;1.50;;
51907;SDS011;39320;53.214;6.556;2022-12-29T08:34:36;2.13;;;1.25;;
51907;SDS011;39320;53.214;6.556;2022-12-29T08:37:02;1.63;;;1.25;;
51907;SDS011;39320;53.214;6.556;2022-12-29T08:39:28;1.45;;;1.30;;
51907;SDS011;39320;53.214;6.556;2022-12-29T08:41:54;2.72;;;1.45;;
51907;SDS011;39320;53.214;6.556;2022-12-29T08:44:20;1.50;;;1.40;;
51907;SDS011;39320;53.214;6.556;2022-12-29T08:46:46;1.50;;;1.40;;
51907;SDS011;39320;53.214;6.556;2022-12-29T08:49:12;2.25;;;1.33;;
51907;SDS011;39320;53.214;6.556;2022-12-29T08:51:38;2.63;;;1.35;;
51907;SDS011;39320;53.214;6.556;2022-12-29T08:54:04;1.50;;;1.40;;
51907;SDS011;39320;53.214;6.556;2022-12-29T08:56:29;2.63;;;1.80;;
51907;SDS011;39320;53.214;6.556;2022-12-29T08:58:55;1.83;;;1.60;;
51907;SDS011;39320;53.214;6.556;2022-12-29T09:01:21;2.08;;;1.75;;
51907;SDS011;39320;53.214;6.556;2022-12-29T09:03:47;3.35;;;1.90;;
51907;SDS011;39320;53.214;6.556;2022-12-29T09:06:17;4.20;;;2.25;;
51907;SDS011;39320;53.214;6.556;2022-12-29T09:08:43;3.53;;;1.98;;
51907;SDS011;39320;53.214;6.556;2022-12-29T09:11:11;2.40;;;1.75;;
51907;SDS011;39320;53.214;6.556;2022-12-29T09:13:47;2.00;;;1.50;;
51907;SDS011;39320;53.214;6.556;2022-12-29T09:16:13;1.63;;;1.50;;
51907;SDS011;39320;53.214;6.556;2022-12-29T09:18:40;2.63;;;1.80;;
51907;SDS011;39320;53.214;6.556;2022-12-29T09:21:06;2.10;;;1.40;;
51907;SDS011;39320;53.214;6.556;2022-12-29T09:23:33;2.90;;;1.60;;
51907;SDS011;39320;53.214;6.556;2022-12-29T09:25:59;2.38;;;1.90;;
51907;SDS011;39320;53.214;6.556;2022-12-29T09:28:25;2.25;;;1.45;;
51907;SDS011;39320;53.214;6.556;2022-12-29T09:30:51;1.83;;;1.58;;
51907;SDS011;39320;53.214;6.556;2022-12-29T09:33:17;2.45;;;1.48;;
51907;SDS011;39320;53.214;6.556;2022-12-29T09:35:44;2.13;;;1.75;;
51907;SDS011;39320;53.214;6.556;2022-12-29T09:38:14;2.60;;;1.55;;
51907;SDS011;39320;53.214;6.556;2022-12-29T09:40:40;1.45;;;1.35;;
51907;SDS011;39320;53.214;6.556;2022-12-29T09:48:25;1.75;;;1.27;;
51907;SDS011;39320;53.214;6.556;2022-12-29T09:50:57;1.35;;;1.25;;
51907;SDS011;39320;53.214;6.556;2022-12-29T09:55:58;1.20;;;1.10;;
51907;SDS011;39320;53.214;6.556;2022-12-29T09:58:31;1.48;;;1.30;;
51907;SDS011;39320;53.214;6.556;2022-12-29T10:01:05;1.98;;;1.70;;
51907;SDS011;39320;53.214;6.556;2022-12-29T10:03:40;2.03;;;1.10;;
51907;SDS011;39320;53.214;6.556;2022-12-29T10:06:15;1.90;;;1.30;;
51907;SDS011;39320;53.214;6.556;2022-12-29T10:09:19;1.33;;;1.23;;
51907;SDS011;39320;53.214;6.556;2022-12-29T10:15:20;1.40;;;1.15;;
51907;SDS011;39320;53.214;6.556;2022-12-29T10:20:54;1.25;;;1.10;;
51907;SDS011;39320;53.214;6.556;2022-12-29T10:23:40;1.75;;;1.10;;
51907;SDS011;39320;53.214;6.556;2022-12-29T10:26:12;1.67;;;1.02;;
51907;SDS011;39320;53.214;6.556;2022-12-29T10:31:32;1.90;;;1.40;;
51907;SDS011;39320;53.214;6.556;2022-12-29T10:34:03;1.50;;;1.40;;
51907;SDS011;39320;53.214;6.556;2022-12-29T10:36:44;1.27;;;1.17;;
51907;SDS011;39320;53.214;6.556;2022-12-29T10:41:54;1.38;;;0.85;;
51907;SDS011;39320;53.214;6.556;2022-12-29T10:44:43;1.77;;;1.23;;
51907;SDS011;39320;53.214;6.556;2022-12-29T10:47:11;1.23;;;1.13;;
51907;SDS011;39320;53.214;6.556;2022-12-29T10:49:40;2.47;;;1.10;;
51907;SDS011;39320;53.214;6.556;2022-12-29T10:52:08;2.25;;;1.35;;
51907;SDS011;39320;53.214;6.556;2022-12-29T10:54:44;1.20;;;1.08;;
51907;SDS011;39320;53.214;6.556;2022-12-29T10:57:24;1.70;;;1.60;;
51907;SDS011;39320;53.214;6.556;2022-12-29T10:59:59;1.90;;;1.23;;
51907;SDS011;39320;53.214;6.556;2022-12-29T11:05:19;1.83;;;1.30;;
51907;SDS011;39320;53.214;6.556;2022-12-29T11:08:02;2.33;;;1.60;;
51907;SDS011;39320;53.214;6.556;2022-12-29T11:10:34;2.25;;;1.30;;
51907;SDS011;39320;53.214;6.556;2022-12-29T11:13:18;2.50;;;1.48;;
51907;SDS011;39320;53.214;6.556;2022-12-29T11:15:49;2.33;;;1.65;;
51907;SDS011;39320;53.214;6.556;2022-12-29T11:18:26;1.83;;;1.27;;
51907;SDS011;39320;53.214;6.556;2022-12-29T11:20:59;2.40;;;1.40;;
51907;SDS011;39320;53.214;6.556;2022-12-29T11:23:35;3.22;;;1.70;;
51907;SDS011;39320;53.214;6.556;2022-12-29T11:28:40;3.25;;;1.88;;
51907;SDS011;39320;53.214;6.556;2022-12-29T11:31:08;2.35;;;1.65;;
51907;SDS011;39320;53.214;6.556;2022-12-29T11:33:35;2.58;;;1.83;;
51907;SDS011;39320;53.214;6.556;2022-12-29T11:36:21;1.95;;;1.67;;
51907;SDS011;39320;53.214;6.556;2022-12-29T11:38:50;2.95;;;1.70;;
51907;SDS011;39320;53.214;6.556;2022-12-29T11:41:20;2.35;;;1.70;;
51907;SDS011;39320;53.214;6.556;2022-12-29T11:43:54;1.98;;;1.50;;
51907;SDS011;39320;53.214;6.556;2022-12-29T11:46:26;1.70;;;1.40;;
51907;SDS011;39320;53.214;6.556;2022-12-29T11:48:58;2.17;;;1.67;;
51907;SDS011;39320;53.214;6.556;2022-12-29T11:51:59;1.95;;;1.60;;
51907;SDS011;39320;53.214;6.556;2022-12-29T11:54:26;2.80;;;1.90;;
51907;SDS011;39320;53.214;6.556;2022-12-29T11:56:55;2.45;;;1.90;;
51907;SDS011;39320;53.214;6.556;2022-12-29T12:01:55;2.13;;;1.70;;
51907;SDS011;39320;53.214;6.556;2022-12-29T12:04:24;1.75;;;1.30;;
51907;SDS011;39320;53.214;6.556;2022-12-29T12:07:00;2.25;;;1.77;;
51907;SDS011;39320;53.214;6.556;2022-12-29T12:09:40;2.05;;;1.40;;
51907;SDS011;39320;53.214;6.556;2022-12-29T12:12:39;2.90;;;2.20;;
51907;SDS011;39320;53.214;6.556;2022-12-29T12:15:08;2.65;;;1.70;;
51907;SDS011;39320;53.214;6.556;2022-12-29T12:20:21;1.60;;;1.30;;
51907;SDS011;39320;53.214;6.556;2022-12-29T12:23:16;2.55;;;2.00;;
51907;SDS011;39320;53.214;6.556;2022-12-29T12:28:28;1.50;;;1.27;;
51907;SDS011;39320;53.214;6.556;2022-12-29T12:31:13;1.73;;;1.20;;
51907;SDS011;39320;53.214;6.556;2022-12-29T12:34:06;3.33;;;1.70;;
51907;SDS011;39320;53.214;6.556;2022-12-29T12:39:43;2.03;;;1.55;;
51907;SDS011;39320;53.214;6.556;2022-12-29T12:42:45;2.28;;;1.63;;
51907;SDS011;39320;53.214;6.556;2022-12-29T12:48:27;2.25;;;1.77;;
51907;SDS011;39320;53.214;6.556;2022-12-29T12:51:20;1.83;;;1.40;;
51907;SDS011;39320;53.214;6.556;2022-12-29T13:05:05;2.13;;;1.27;;
51907;SDS011;39320;53.214;6.556;2022-12-29T13:10:45;1.00;;;0.90;;
51907;SDS011;39320;53.214;6.556;2022-12-29T13:16:56;1.73;;;1.15;;
51907;SDS011;39320;53.214;6.556;2022-12-29T13:19:08;1.15;;;1.00;;
51907;SDS011;39320;53.214;6.556;2022-12-29T13:21:54;1.00;;;1.00;;
51907;SDS011;39320;53.214;6.556;2022-12-29T13:38:46;1.17;;;1.05;;
51907;SDS011;39320;53.214;6.556;2022-12-29T13:41:19;1.27;;;0.82;;
51907;SDS011;39320;53.214;6.556;2022-12-29T13:43:54;1.20;;;1.05;;
51907;SDS011;39320;53.214;6.556;2022-12-29T13:46:24;1.67;;;1.27;;
51907;SDS011;39320;53.214;6.556;2022-12-29T13:51:24;0.93;;;0.93;;
51907;SDS011;39320;53.214;6.556;2022-12-29T13:53:57;1.08;;;0.93;;
51907;SDS011;39320;53.214;6.556;2022-12-29T13:59:34;1.10;;;1.00;;
51907;SDS011;39320;53.214;6.556;2022-12-29T14:02:17;1.63;;;1.10;;
51907;SDS011;39320;53.214;6.556;2022-12-29T14:05:01;1.27;;;0.95;;
51907;SDS011;39320;53.214;6.556;2022-12-29T14:07:58;1.20;;;1.10;;
51907;SDS011;39320;53.214;6.556;2022-12-29T14:13:22;1.40;;;1.10;;
51907;SDS011;39320;53.214;6.556;2022-12-29T14:15:51;1.35;;;1.20;;
51907;SDS011;39320;53.214;6.556;2022-12-29T14:18:21;1.33;;;1.20;;
51907;SDS011;39320;53.214;6.556;2022-12-29T14:21:08;3.13;;;0.95;;
51907;SDS011;39320;53.214;6.556;2022-12-29T14:23:41;1.15;;;1.05;;
51907;SDS011;39320;53.214;6.556;2022-12-29T14:28:38;1.40;;;0.80;;
51907;SDS011;39320;53.214;6.556;2022-12-29T14:31:32;1.10;;;0.98;;
51907;SDS011;39320;53.214;6.556;2022-12-29T14:39:49;1.98;;;1.20;;
51907;SDS011;39320;53.214;6.556;2022-12-29T14:45:22;1.42;;;1.00;;
51907;SDS011;39320;53.214;6.556;2022-12-29T14:47:31;2.60;;;1.20;;
51907;SDS011;39320;53.214;6.556;2022-12-29T14:50:02;1.38;;;0.90;;
51907;SDS011;39320;53.214;6.556;2022-12-29T14:52:31;1.20;;;1.10;;
51907;SDS011;39320;53.214;6.556;2022-12-29T14:57:34;1.63;;;1.45;;
51907;SDS011;39320;53.214;6.556;2022-12-29T15:00:07;1.20;;;1.10;;
51907;SDS011;39320;53.214;6.556;2022-12-29T15:02:38;2.03;;;0.98;;
51907;SDS011;39320;53.214;6.556;2022-12-29T15:08:06;2.30;;;1.33;;
51907;SDS011;39320;53.214;6.556;2022-12-29T15:10:35;1.73;;;1.13;;
51907;SDS011;39320;53.214;6.556;2022-12-29T15:13:16;1.33;;;1.20;;
51907;SDS011;39320;53.214;6.556;2022-12-29T15:15:47;1.75;;;1.45;;
51907;SDS011;39320;53.214;6.556;2022-12-29T15:18:28;1.85;;;1.10;;
51907;SDS011;39320;53.214;6.556;2022-12-29T15:21:00;2.15;;;1.27;;
51907;SDS011;39320;53.214;6.556;2022-12-29T15:23:29;1.42;;;1.00;;
51907;SDS011;39320;53.214;6.556;2022-12-29T15:25:58;1.58;;;1.40;;
51907;SDS011;39320;53.214;6.556;2022-12-29T15:28:26;1.35;;;1.20;;
51907;SDS011;39320;53.214;6.556;2022-12-29T15:31:02;1.73;;;1.20;;
51907;SDS011;39320;53.214;6.556;2022-12-29T15:33:30;1.50;;;1.40;;
51907;SDS011;39320;53.214;6.556;2022-12-29T15:35:57;2.28;;;1.40;;
51907;SDS011;39320;53.214;6.556;2022-12-29T15:38:28;1.88;;;1.23;;
51907;SDS011;39320;53.214;6.556;2022-12-29T15:46:30;1.58;;;1.30;;
51907;SDS011;39320;53.214;6.556;2022-12-29T15:48:56;1.95;;;1.60;;
51907;SDS011;39320;53.214;6.556;2022-12-29T15:53:54;2.17;;;1.67;;
51907;SDS011;39320;53.214;6.556;2022-12-29T15:56:21;1.40;;;1.23;;
51907;SDS011;39320;53.214;6.556;2022-12-29T15:58:48;1.60;;;1.30;;
51907;SDS011;39320;53.214;6.556;2022-12-29T16:01:30;1.50;;;1.10;;
51907;SDS011;39320;53.214;6.556;2022-12-29T16:04:04;1.38;;;1.13;;
51907;SDS011;39320;53.214;6.556;2022-12-29T16:06:33;2.15;;;1.58;;
51907;SDS011;39320;53.214;6.556;2022-12-29T16:09:04;2.03;;;1.23;;
51907;SDS011;39320;53.214;6.556;2022-12-29T16:11:44;1.20;;;1.10;;
51907;SDS011;39320;53.214;6.556;2022-12-29T16:14:19;1.30;;;1.20;;
51907;SDS011;39320;53.214;6.556;2022-12-29T16:16:51;1.45;;;1.00;;
51907;SDS011;39320;53.214;6.556;2022-12-29T16:19:18;1.40;;;1.20;;
51907;SDS011;39320;53.214;6.556;2022-12-29T16:21:54;1.25;;;1.08;;
51907;SDS011;39320;53.214;6.556;2022-12-29T16:24:23;2.15;;;1.40;;
51907;SDS011;39320;53.214;6.556;2022-12-29T16:26:53;1.05;;;0.95;;
51907;SDS011;39320;53.214;6.556;2022-12-29T16:29:29;1.63;;;1.50;;
51907;SDS011;39320;53.214;6.556;2022-12-29T16:31:56;1.33;;;1.23;;
51907;SDS011;39320;53.214;6.556;2022-12-29T16:37:05;1.70;;;1.02;;
51907;SDS011;39320;53.214;6.556;2022-12-29T16:39:53;0.80;;;0.80;;
51907;SDS011;39320;53.214;6.556;2022-12-29T16:50:37;0.70;;;0.70;;
51907;SDS011;39320;53.214;6.556;2022-12-29T16:53:05;0.80;;;0.80;;
51907;SDS011;39320;53.214;6.556;2022-12-29T16:55:45;0.63;;;0.63;;
51907;SDS011;39320;53.214;6.556;2022-12-29T16:58:18;1.20;;;0.90;;
51907;SDS011;39320;53.214;6.556;2022-12-29T17:00:56;1.30;;;1.02;;
51907;SDS011;39320;53.214;6.556;2022-12-29T17:03:58;1.08;;;0.90;;
51907;SDS011;39320;53.214;6.556;2022-12-29T17:06:18;0.90;;;0.90;;
51907;SDS011;39320;53.214;6.556;2022-12-29T17:08:46;1.05;;;0.90;;
51907;SDS011;39320;53.214;6.556;2022-12-29T17:11:18;0.88;;;0.80;;
51907;SDS011;39320;53.214;6.556;2022-12-29T17:17:51;0.93;;;0.90;;
51907;SDS011;39320;53.214;6.556;2022-12-29T17:20:04;1.48;;;1.08;;
51907;SDS011;39320;53.214;6.556;2022-12-29T17:22:44;1.75;;;1.13;;
51907;SDS011;39320;53.214;6.556;2022-12-29T17:25:14;1.80;;;1.30;;
51907;SDS011;39320;53.214;6.556;2022-12-29T17:27:55;1.00;;;0.90;;
51907;SDS011;39320;53.214;6.556;2022-12-29T17:30:25;1.10;;;1.00;;
51907;SDS011;39320;53.214;6.556;2022-12-29T17:32:52;1.50;;;1.40;;
51907;SDS011;39320;53.214;6.556;2022-12-29T17:35:22;1.40;;;1.30;;
51907;SDS011;39320;53.214;6.556;2022-12-29T17:37:49;1.10;;;1.00;;
51907;SDS011;39320;53.214;6.556;2022-12-29T17:40:26;1.60;;;1.50;;
51907;SDS011;39320;53.214;6.556;2022-12-29T17:42:54;1.60;;;1.50;;
51907;SDS011;39320;53.214;6.556;2022-12-29T17:45:25;1.85;;;1.35;;
51907;SDS011;39320;53.214;6.556;2022-12-29T17:47:56;1.00;;;1.00;;
51907;SDS011;39320;53.214;6.556;2022-12-29T17:50:25;1.85;;;1.17;;
51907;SDS011;39320;53.214;6.556;2022-12-29T17:53:03;1.23;;;1.13;;
51907;SDS011;39320;53.214;6.556;2022-12-29T17:55:30;1.23;;;1.13;;
51907;SDS011;39320;53.214;6.556;2022-12-29T17:57:57;1.80;;;1.40;;
51907;SDS011;39320;53.214;6.556;2022-12-29T18:00:24;1.52;;;1.20;;